createdAt,value
2023-07-03T00:00:55.037Z,22.35
2023-07-03T00:01:55.165Z,22.36
2023-07-03T00:02:55.250Z,22.36
2023-07-03T00:03:55.267Z,22.35
2023-07-03T00:04:55.468Z,22.30
2023-07-03T00:05:55.373Z,22.28
2023-07-03T00:06:55.410Z,22.29
2023-07-03T00:07:55.477Z,22.25
2023-07-03T00:08:55.512Z,22.23
2023-07-03T00:09:55.585Z,22.24
2023-07-03T00:10:55.640Z,22.25
2023-07-03T00:11:55.698Z,22.25
2023-07-03T00:12:55.751Z,22.27
2023-07-03T00:13:55.858Z,22.27
2023-07-03T00:14:55.891Z,22.27
2023-07-03T00:15:55.939Z,22.26
2023-07-03T00:16:56.061Z,22.26
2023-07-03T00:17:56.146Z,22.24
2023-07-03T00:18:56.133Z,22.23
2023-07-03T00:19:56.166Z,22.24
2023-07-03T00:20:56.204Z,22.24
2023-07-03T00:21:56.213Z,22.25
2023-07-03T00:22:56.294Z,22.25
2023-07-03T00:23:56.401Z,22.20
2023-07-03T00:24:56.359Z,22.20
2023-07-03T00:25:56.365Z,22.20
2023-07-03T00:26:56.342Z,22.19
2023-07-03T00:27:56.345Z,22.19
2023-07-03T00:28:56.379Z,22.18
2023-07-03T00:29:56.334Z,22.19
2023-07-03T00:30:56.325Z,22.20
2023-07-03T00:31:56.442Z,22.20
2023-07-03T00:32:56.357Z,22.19
2023-07-03T00:33:56.318Z,22.20
2023-07-03T00:34:56.410Z,22.19
2023-07-03T00:35:56.418Z,22.17
2023-07-03T00:36:56.429Z,22.15
2023-07-03T00:37:56.426Z,22.13
2023-07-03T00:38:56.456Z,22.13
2023-07-03T00:39:56.505Z,22.10
2023-07-03T00:40:56.511Z,22.09
2023-07-03T00:41:56.499Z,22.08
2023-07-03T00:42:56.522Z,22.04
2023-07-03T00:43:56.529Z,22.05
2023-07-03T00:44:56.558Z,22.05
2023-07-03T00:45:56.601Z,22.05
2023-07-03T00:46:56.595Z,22.04
2023-07-03T00:47:56.648Z,22.03
2023-07-03T00:48:56.661Z,22.01
2023-07-03T00:49:56.631Z,22.00
2023-07-03T00:50:56.678Z,21.98
2023-07-03T00:51:56.721Z,21.95
2023-07-03T00:52:56.730Z,21.93
2023-07-03T00:53:56.746Z,21.93
2023-07-03T00:54:56.813Z,21.94
2023-07-03T00:55:56.821Z,21.94
2023-07-03T00:56:56.852Z,21.94
2023-07-03T00:57:56.860Z,21.93
2023-07-03T00:58:56.908Z,21.93
2023-07-03T00:59:56.904Z,21.94
2023-07-03T01:00:56.994Z,21.92
2023-07-03T01:01:57.114Z,21.90
2023-07-03T01:02:57.081Z,21.88
2023-07-03T01:03:57.062Z,21.87
2023-07-03T01:04:57.277Z,21.87
2023-07-03T01:05:57.317Z,21.86
2023-07-03T01:06:57.196Z,21.83
2023-07-03T01:07:57.258Z,21.83
2023-07-03T01:08:57.282Z,21.82
2023-07-03T01:09:57.316Z,21.82
2023-07-03T01:10:57.349Z,21.82
2023-07-03T01:11:57.415Z,21.83
2023-07-03T01:12:57.464Z,21.85
2023-07-03T01:13:57.480Z,21.84
2023-07-03T01:14:57.484Z,21.84
2023-07-03T01:15:57.573Z,21.80
2023-07-03T01:16:57.614Z,21.77
2023-07-03T01:17:57.712Z,21.76
2023-07-03T01:18:57.686Z,21.72
2023-07-03T01:19:57.696Z,21.71
2023-07-03T01:20:57.745Z,21.70
2023-07-03T01:21:57.772Z,21.70
2023-07-03T01:22:57.825Z,21.70
2023-07-03T01:23:57.881Z,21.70
2023-07-03T01:24:57.934Z,21.63
2023-07-03T01:25:57.983Z,21.63
2023-07-03T01:26:58.092Z,21.63
2023-07-03T01:27:58.101Z,21.64
2023-07-03T01:28:58.173Z,21.64
2023-07-03T01:29:58.217Z,21.64
2023-07-03T01:30:58.280Z,21.62
2023-07-03T01:31:58.419Z,21.63
2023-07-03T01:32:58.535Z,21.64
2023-07-03T01:33:58.451Z,21.64
2023-07-03T01:34:58.519Z,21.65
2023-07-03T01:35:58.577Z,21.65
2023-07-03T01:36:58.621Z,21.65
2023-07-03T01:37:58.665Z,21.65
2023-07-03T01:38:58.759Z,21.68
2023-07-03T01:39:58.784Z,21.69
2023-07-03T01:40:58.854Z,21.70
2023-07-03T01:41:58.937Z,21.69
2023-07-03T01:42:58.999Z,21.68
2023-07-03T01:43:59.052Z,21.68
2023-07-03T01:44:59.093Z,21.69
2023-07-03T01:45:59.134Z,21.69
2023-07-03T01:46:59.244Z,21.68
2023-07-03T01:47:59.269Z,21.66
2023-07-03T01:48:59.314Z,21.64
2023-07-03T01:49:59.361Z,21.64
2023-07-03T01:50:59.389Z,21.64
2023-07-03T01:51:59.450Z,21.64
2023-07-03T01:52:59.501Z,21.65
2023-07-03T01:53:59.564Z,21.65
2023-07-03T01:54:59.615Z,21.63
2023-07-03T01:55:59.708Z,21.63
2023-07-03T01:56:59.761Z,21.64
2023-07-03T01:57:59.878Z,21.63
2023-07-03T01:58:59.849Z,21.61
2023-07-03T01:59:59.927Z,21.60
2023-07-03T02:01:00.042Z,21.58
2023-07-03T02:02:00.060Z,21.51
2023-07-03T02:03:00.192Z,21.45
2023-07-03T02:04:00.123Z,21.46
2023-07-03T02:05:00.269Z,21.49
2023-07-03T02:06:00.256Z,21.52
2023-07-03T02:07:00.319Z,21.52
2023-07-03T02:08:00.330Z,21.53
2023-07-03T02:09:00.437Z,21.52
2023-07-03T02:10:00.493Z,21.52
2023-07-03T02:11:00.577Z,21.53
2023-07-03T02:12:00.627Z,21.53
2023-07-03T02:13:00.692Z,21.50
2023-07-03T02:14:00.724Z,21.51
2023-07-03T02:15:00.773Z,21.52
2023-07-03T02:16:00.858Z,21.50
2023-07-03T02:17:01.054Z,21.50
2023-07-03T02:18:00.996Z,21.50
2023-07-03T02:19:01.029Z,21.51
2023-07-03T02:20:01.100Z,21.52
2023-07-03T02:21:01.150Z,21.52
2023-07-03T02:22:01.240Z,21.52
2023-07-03T02:23:01.329Z,21.52
2023-07-03T02:24:01.305Z,21.53
2023-07-03T02:25:01.404Z,21.54
2023-07-03T02:26:01.488Z,21.54
2023-07-03T02:27:01.536Z,21.54
2023-07-03T02:28:01.553Z,21.54
2023-07-03T02:29:01.613Z,21.53
2023-07-03T02:30:01.693Z,21.52
2023-07-03T02:31:01.802Z,21.51
2023-07-03T02:32:01.802Z,21.51
2023-07-03T02:33:01.874Z,21.49
2023-07-03T02:34:01.882Z,21.50
2023-07-03T02:35:01.994Z,21.48
2023-07-03T02:36:01.986Z,21.45
2023-07-03T02:37:02.011Z,21.46
2023-07-03T02:38:02.065Z,21.47
2023-07-03T02:39:02.160Z,21.48
2023-07-03T02:40:02.181Z,21.50
2023-07-03T02:41:02.295Z,21.47
2023-07-03T02:42:02.305Z,21.46
2023-07-03T02:43:02.363Z,21.48
2023-07-03T02:44:02.394Z,21.47
2023-07-03T02:45:02.472Z,21.49
2023-07-03T02:46:02.527Z,21.51
2023-07-03T02:47:02.648Z,21.49
2023-07-03T02:48:02.712Z,21.47
2023-07-03T02:49:02.718Z,21.47
2023-07-03T02:50:02.880Z,21.48
2023-07-03T02:51:02.900Z,21.47
2023-07-03T02:52:02.877Z,21.47
2023-07-03T02:53:02.943Z,21.49
2023-07-03T02:54:03.021Z,21.49
2023-07-03T02:55:03.081Z,21.50
2023-07-03T02:56:03.161Z,21.51
2023-07-03T02:57:03.244Z,21.52
2023-07-03T02:58:03.277Z,21.51
2023-07-03T02:59:03.368Z,21.52
2023-07-03T03:00:03.391Z,21.53
2023-07-03T03:01:03.453Z,21.54
2023-07-03T03:02:03.509Z,21.54
2023-07-03T03:03:03.708Z,21.55
2023-07-03T03:04:03.638Z,21.55
2023-07-03T03:05:03.743Z,21.55
2023-07-03T03:06:03.754Z,21.55
2023-07-03T03:07:03.792Z,21.54
2023-07-03T03:08:03.877Z,21.53
2023-07-03T03:09:03.936Z,21.53
2023-07-03T03:10:03.977Z,21.49
2023-07-03T03:11:04.097Z,21.47
2023-07-03T03:12:04.095Z,21.46
2023-07-03T03:13:04.143Z,21.46
2023-07-03T03:14:04.219Z,21.47
2023-07-03T03:15:04.273Z,21.47
2023-07-03T03:16:04.321Z,21.45
2023-07-03T03:17:04.383Z,21.44
2023-07-03T03:18:04.523Z,21.40
2023-07-03T03:19:04.482Z,21.31
2023-07-03T03:20:04.520Z,21.31
2023-07-03T03:21:04.530Z,21.32
2023-07-03T03:22:04.517Z,21.33
2023-07-03T03:23:04.557Z,21.37
2023-07-03T03:24:04.559Z,21.40
2023-07-03T03:25:04.584Z,21.41
2023-07-03T03:26:04.597Z,21.41
2023-07-03T03:27:04.625Z,21.42
2023-07-03T03:28:04.688Z,21.43
2023-07-03T03:29:04.702Z,21.42
2023-07-03T03:30:04.739Z,21.42
2023-07-03T03:31:04.807Z,21.41
2023-07-03T03:32:04.759Z,21.44
2023-07-03T03:33:04.768Z,21.43
2023-07-03T03:34:04.859Z,21.41
2023-07-03T03:35:05.007Z,21.42
2023-07-03T03:36:04.918Z,21.41
2023-07-03T03:37:04.959Z,21.41
2023-07-03T03:38:05.001Z,21.39
2023-07-03T03:39:04.990Z,21.37
2023-07-03T03:40:04.991Z,21.31
2023-07-03T03:41:05.024Z,21.29
2023-07-03T03:42:05.034Z,21.32
2023-07-03T03:43:05.030Z,21.32
2023-07-03T03:44:05.034Z,21.34
2023-07-03T03:45:05.055Z,21.35
2023-07-03T03:46:05.053Z,21.36
2023-07-03T03:47:05.050Z,21.36
2023-07-03T03:48:05.216Z,21.36
2023-07-03T03:49:05.048Z,21.38
2023-07-03T03:50:05.078Z,21.38
2023-07-03T03:51:05.073Z,21.38
2023-07-03T03:52:05.100Z,21.39
2023-07-03T03:53:05.150Z,21.37
2023-07-03T03:54:05.153Z,21.29
2023-07-03T03:55:05.160Z,21.29
2023-07-03T03:56:05.193Z,21.32
2023-07-03T03:57:05.281Z,21.33
2023-07-03T03:58:05.256Z,21.30
2023-07-03T03:59:05.271Z,21.22
2023-07-03T04:00:05.262Z,21.19
2023-07-03T04:01:05.277Z,21.21
2023-07-03T04:02:05.302Z,21.16
2023-07-03T04:03:05.297Z,21.11
2023-07-03T04:04:05.284Z,21.04
2023-07-03T04:05:05.301Z,21.03
2023-07-03T04:06:05.302Z,21.04
2023-07-03T04:07:05.304Z,21.07
2023-07-03T04:08:05.358Z,21.09
2023-07-03T04:09:05.313Z,21.13
2023-07-03T04:10:05.302Z,21.15
2023-07-03T04:11:05.334Z,21.19
2023-07-03T04:12:05.317Z,21.20
2023-07-03T04:13:05.368Z,21.23
2023-07-03T04:14:05.368Z,21.25
2023-07-03T04:15:05.382Z,21.26
2023-07-03T04:16:05.371Z,21.20
2023-07-03T04:17:05.346Z,21.16
2023-07-03T04:18:05.354Z,21.14
2023-07-03T04:19:05.353Z,21.13
2023-07-03T04:20:05.372Z,21.13
2023-07-03T04:21:05.338Z,21.14
2023-07-03T04:22:05.351Z,21.15
2023-07-03T04:23:05.347Z,21.16
2023-07-03T04:24:05.396Z,21.14
2023-07-03T04:25:05.339Z,21.13
2023-07-03T04:26:05.351Z,21.15
2023-07-03T04:27:05.363Z,21.14
2023-07-03T04:28:05.355Z,21.15
2023-07-03T04:29:05.356Z,21.19
2023-07-03T04:30:05.353Z,21.22
2023-07-03T04:31:05.387Z,21.20
2023-07-03T04:32:05.404Z,21.15
2023-07-03T04:33:05.418Z,21.14
2023-07-03T04:34:05.394Z,21.21
2023-07-03T04:35:05.430Z,21.21
2023-07-03T04:36:05.410Z,21.22
2023-07-03T04:37:05.513Z,21.24
2023-07-03T04:38:05.436Z,21.24
2023-07-03T04:39:05.421Z,21.25
2023-07-03T04:40:05.474Z,21.26
2023-07-03T04:41:05.448Z,21.26
2023-07-03T04:42:05.456Z,21.28
2023-07-03T04:43:05.446Z,21.29
2023-07-03T04:44:05.454Z,21.30
2023-07-03T04:45:05.462Z,21.28
2023-07-03T04:46:05.499Z,21.29
2023-07-03T04:47:05.457Z,21.29
2023-07-03T04:48:05.473Z,21.28
2023-07-03T04:49:05.428Z,21.29
2023-07-03T04:50:05.457Z,21.27
2023-07-03T04:51:05.474Z,21.29
2023-07-03T04:52:05.500Z,21.29
2023-07-03T04:53:05.482Z,21.32
2023-07-03T04:54:05.470Z,21.34
2023-07-03T04:55:05.517Z,21.35
2023-07-03T04:56:05.496Z,21.37
2023-07-03T04:57:05.540Z,21.39
2023-07-03T04:58:05.488Z,21.39
2023-07-03T04:59:05.507Z,21.42
2023-07-03T05:00:05.537Z,21.35
2023-07-03T05:02:24.947Z,21.36
2023-07-03T05:03:24.957Z,21.39
2023-07-03T05:04:24.848Z,21.40
2023-07-03T05:05:24.777Z,21.36
2023-07-03T05:06:24.877Z,21.36
2023-07-03T05:07:24.768Z,21.36
2023-07-03T05:08:24.750Z,21.40
2023-07-03T05:09:24.774Z,21.42
2023-07-03T05:10:24.774Z,21.42
2023-07-03T05:11:24.767Z,21.38
2023-07-03T05:12:24.771Z,21.34
2023-07-03T05:13:24.742Z,21.35
2023-07-03T05:14:24.758Z,21.37
2023-07-03T05:15:24.733Z,21.39
2023-07-03T05:16:24.868Z,21.39
2023-07-03T05:17:24.742Z,21.40
2023-07-03T05:18:24.664Z,21.42
2023-07-03T05:19:24.700Z,21.42
2023-07-03T05:20:24.684Z,21.43
2023-07-03T05:21:24.789Z,21.45
2023-07-03T05:22:24.685Z,21.47
2023-07-03T05:23:24.633Z,21.48
2023-07-03T05:24:24.692Z,21.49
2023-07-03T05:25:24.717Z,21.51
2023-07-03T05:26:24.850Z,21.52
2023-07-03T05:27:24.738Z,21.53
2023-07-03T05:28:24.733Z,21.55
2023-07-03T05:29:24.765Z,21.54
2023-07-03T05:30:24.760Z,21.53
2023-07-03T05:31:25.019Z,21.52
2023-07-03T05:32:24.980Z,21.52
2023-07-03T05:33:24.963Z,21.51
2023-07-03T05:34:24.990Z,21.52
2023-07-03T05:35:24.979Z,21.54
2023-07-03T05:36:25.492Z,21.55
2023-07-03T05:37:25.101Z,21.56
2023-07-03T05:38:25.300Z,21.57
2023-07-03T05:39:25.245Z,21.58
2023-07-03T05:40:25.340Z,21.60
2023-07-03T05:41:25.939Z,21.60
2023-07-03T05:42:27.612Z,21.61
2023-07-03T05:43:25.450Z,21.61
2023-07-03T05:44:25.696Z,21.61
2023-07-03T05:46:52.871Z,21.52
2023-07-03T05:47:45.297Z,21.56
2023-07-03T05:48:45.290Z,21.58
2023-07-03T05:49:45.324Z,21.61
2023-07-03T05:50:45.552Z,21.63
2023-07-03T05:51:45.151Z,21.67
2023-07-03T05:52:45.151Z,21.68
2023-07-03T05:53:45.129Z,21.71
2023-07-03T05:54:45.154Z,21.72
2023-07-03T05:55:45.121Z,21.73
2023-07-03T05:56:45.434Z,21.75
2023-07-03T05:57:45.122Z,21.76
2023-07-03T05:58:45.245Z,21.77
2023-07-03T05:59:45.109Z,21.77
2023-07-03T06:00:45.161Z,21.78
2023-07-03T06:01:46.697Z,21.75
2023-07-03T06:02:45.071Z,21.70
2023-07-03T06:03:45.186Z,21.71
2023-07-03T06:04:45.212Z,21.73
2023-07-03T06:05:45.239Z,21.77
2023-07-03T06:06:45.447Z,21.80
2023-07-03T06:07:45.350Z,21.79
2023-07-03T06:08:45.364Z,21.78
2023-07-03T06:09:45.357Z,21.80
2023-07-03T06:10:45.461Z,21.82
2023-07-03T06:11:45.417Z,21.83
2023-07-03T06:12:45.452Z,21.84
2023-07-03T06:13:46.416Z,21.86
2023-07-03T06:14:45.448Z,21.86
2023-07-03T06:15:45.540Z,21.82
2023-07-03T06:16:45.971Z,21.77
2023-07-03T06:17:45.702Z,21.67
2023-07-03T06:18:46.486Z,21.69
2023-07-03T06:19:45.643Z,21.74
2023-07-03T06:20:45.600Z,21.79
2023-07-03T06:21:45.923Z,21.84
2023-07-03T06:22:45.666Z,21.89
2023-07-03T06:23:45.743Z,21.86
2023-07-03T06:24:45.715Z,21.89
2023-07-03T06:25:45.729Z,21.82
2023-07-03T06:26:45.948Z,21.78
2023-07-03T06:27:45.799Z,21.81
2023-07-03T06:28:45.803Z,21.83
2023-07-03T06:29:45.861Z,21.87
2023-07-03T06:30:46.750Z,21.91
2023-07-03T06:31:45.952Z,21.97
2023-07-03T06:32:45.964Z,21.97
2023-07-03T06:33:45.922Z,21.95
2023-07-03T06:34:45.876Z,21.98
2023-07-03T06:35:46.077Z,22.07
2023-07-03T06:36:46.451Z,22.07
2023-07-03T06:37:46.085Z,22.11
2023-07-03T06:38:46.011Z,22.04
2023-07-03T06:39:46.085Z,22.08
2023-07-03T06:40:46.173Z,22.15
2023-07-03T06:41:46.462Z,22.09
2023-07-03T06:42:46.062Z,22.05
2023-07-03T06:43:46.084Z,22.13
2023-07-03T06:44:46.135Z,22.21
2023-07-03T06:45:46.117Z,22.25
2023-07-03T06:46:46.163Z,22.27
2023-07-03T06:47:46.147Z,22.35
2023-07-03T06:48:46.174Z,22.39
2023-07-03T06:49:46.142Z,22.40
2023-07-03T06:50:46.101Z,22.41
2023-07-03T06:51:46.413Z,22.44
2023-07-03T06:52:46.258Z,22.47
2023-07-03T06:53:47.316Z,22.44
2023-07-03T06:54:46.343Z,22.42
2023-07-03T06:55:46.398Z,22.52
2023-07-03T06:56:47.081Z,22.60
2023-07-03T06:57:46.510Z,22.65
2023-07-03T06:58:46.566Z,22.68
2023-07-03T06:59:46.629Z,22.69
2023-07-03T07:00:46.669Z,22.66
2023-07-03T07:01:46.994Z,22.62
2023-07-03T07:02:46.786Z,22.58
2023-07-03T07:03:47.500Z,22.59
2023-07-03T07:04:47.050Z,22.64
2023-07-03T07:05:47.088Z,22.68
2023-07-03T07:06:48.052Z,22.73
2023-07-03T07:07:47.303Z,22.75
2023-07-03T07:08:47.071Z,22.75
2023-07-03T07:09:47.233Z,22.78
2023-07-03T07:10:47.223Z,22.70
2023-07-03T07:11:49.139Z,22.71
2023-07-03T07:12:49.068Z,22.71
2023-07-03T07:13:47.206Z,22.75
2023-07-03T07:14:48.267Z,22.74
2023-07-03T07:15:47.122Z,22.72
2023-07-03T07:16:47.513Z,22.64
2023-07-03T07:17:52.317Z,22.67
2023-07-03T07:18:48.214Z,22.71
2023-07-03T07:19:47.123Z,22.72
2023-07-03T07:20:47.138Z,22.73
2023-07-03T07:21:49.024Z,22.74
2023-07-03T07:22:47.149Z,22.73
2023-07-03T07:23:47.184Z,22.72
2023-07-03T07:24:48.223Z,22.77
2023-07-03T07:25:47.194Z,22.83
2023-07-03T07:26:47.483Z,22.89
2023-07-03T07:27:47.092Z,22.94
2023-07-03T07:28:47.085Z,22.99
2023-07-03T07:29:47.071Z,23.01
2023-07-03T07:30:47.072Z,22.88
2023-07-03T07:31:47.472Z,22.82
2023-07-03T07:32:47.081Z,22.61
2023-07-03T07:33:47.022Z,22.65
2023-07-03T07:34:47.027Z,22.76
2023-07-03T07:35:47.099Z,22.81
2023-07-03T07:36:47.447Z,22.83
2023-07-03T07:37:47.255Z,22.85
2023-07-03T07:38:47.322Z,22.85
2023-07-03T07:39:47.359Z,22.81
2023-07-03T07:40:47.361Z,22.88
2023-07-03T07:41:47.642Z,22.95
2023-07-03T07:42:47.445Z,22.98
2023-07-03T07:43:47.598Z,23.02
2023-07-03T07:44:47.591Z,22.88
2023-07-03T07:45:48.306Z,22.90
2023-07-03T07:46:48.269Z,22.90
2023-07-03T07:47:47.751Z,22.93
2023-07-03T07:48:47.702Z,22.91
2023-07-03T07:49:48.482Z,22.86
2023-07-03T07:50:47.750Z,22.85
2023-07-03T07:51:47.874Z,22.88
2023-07-03T07:52:48.109Z,22.91
2023-07-03T07:53:47.821Z,22.93
2023-07-03T07:54:47.770Z,22.96
2023-07-03T07:55:47.851Z,22.99
2023-07-03T07:56:47.771Z,22.98
2023-07-03T07:57:47.869Z,22.98
2023-07-03T07:58:47.812Z,23.02
2023-07-03T07:59:48.165Z,23.04
2023-07-03T08:00:47.755Z,23.06
2023-07-03T08:01:47.887Z,23.07
2023-07-03T08:02:47.939Z,23.13
2023-07-03T08:03:47.975Z,23.17
2023-07-03T08:04:47.907Z,23.25
2023-07-03T08:05:48.041Z,23.28
2023-07-03T08:06:47.960Z,23.37
2023-07-03T08:07:48.464Z,23.41
2023-07-03T08:08:47.961Z,23.40
2023-07-03T08:09:48.030Z,23.43
2023-07-03T08:10:48.040Z,23.46
2023-07-03T08:11:48.036Z,23.44
2023-07-03T08:12:48.434Z,23.39
2023-07-03T08:13:48.662Z,23.43
2023-07-03T08:14:48.156Z,23.42
2023-07-03T08:15:48.227Z,23.38
2023-07-03T08:16:48.388Z,23.42
2023-07-03T08:17:48.570Z,23.45
2023-07-03T08:18:50.078Z,23.45
2023-07-03T08:19:48.274Z,23.25
2023-07-03T08:20:48.291Z,23.28
2023-07-03T08:21:48.276Z,23.34
2023-07-03T08:22:48.467Z,23.18
2023-07-03T08:23:48.340Z,23.24
2023-07-03T08:24:48.370Z,23.36
2023-07-03T08:25:48.637Z,23.47
2023-07-03T08:26:48.457Z,23.54
2023-07-03T08:27:48.483Z,23.57
2023-07-03T08:28:48.498Z,23.54
2023-07-03T08:29:48.521Z,23.52
2023-07-03T08:30:48.642Z,23.48
2023-07-03T08:31:48.672Z,23.53
2023-07-03T08:32:49.016Z,23.59
2023-07-03T08:33:48.726Z,23.66
2023-07-03T08:37:49.084Z,23.90
2023-07-03T08:38:48.784Z,23.91
2023-07-03T08:39:48.804Z,23.91
2023-07-03T08:40:48.909Z,23.90
2023-07-03T08:41:48.721Z,23.94
2023-07-03T08:42:48.959Z,23.95
2023-07-03T08:43:48.706Z,23.94
2023-07-03T08:44:48.719Z,23.97
2023-07-03T08:45:48.743Z,23.98
2023-07-03T08:47:01.941Z,24.02
2023-07-03T08:47:49.693Z,23.98
2023-07-03T08:48:48.667Z,24.04
2023-07-03T08:49:48.640Z,24.05
2023-07-03T08:50:48.614Z,24.14
2023-07-03T08:51:48.622Z,24.24
2023-07-03T08:52:49.050Z,24.26
2023-07-03T08:53:48.629Z,24.32
2023-07-03T08:54:48.685Z,24.35
2023-07-03T08:55:48.661Z,24.27
2023-07-03T08:56:48.609Z,24.19
2023-07-03T08:57:49.955Z,24.08
2023-07-03T08:58:48.642Z,23.96
2023-07-03T08:59:48.673Z,24.00
2023-07-03T09:00:48.936Z,24.15
2023-07-03T09:01:48.858Z,24.16
2023-07-03T09:02:48.872Z,23.99
2023-07-03T09:03:48.898Z,23.90
2023-07-03T09:04:49.244Z,23.90
2023-07-03T09:05:49.199Z,23.90
2023-07-03T09:06:48.929Z,23.93
2023-07-03T09:07:49.001Z,24.10
2023-07-03T09:08:49.036Z,24.23
2023-07-03T09:09:49.063Z,24.35
2023-07-03T09:10:49.120Z,24.49
2023-07-03T09:11:49.540Z,24.39
2023-07-03T09:12:49.172Z,24.47
2023-07-03T09:13:49.207Z,24.45
2023-07-03T09:14:49.240Z,24.52
2023-07-03T09:15:49.532Z,24.32
2023-07-03T09:16:49.438Z,24.24
2023-07-03T09:17:49.593Z,24.28
2023-07-03T09:18:49.270Z,24.46
2023-07-03T09:19:49.313Z,24.56
2023-07-03T09:20:49.604Z,24.54
2023-07-03T09:21:49.401Z,24.46
2023-07-03T09:22:49.512Z,24.45
2023-07-03T09:23:49.484Z,24.53
2023-07-03T09:24:50.402Z,24.57
2023-07-03T09:25:50.004Z,24.51
2023-07-03T09:26:49.727Z,24.53
2023-07-03T09:27:50.042Z,24.60
2023-07-03T09:28:49.618Z,24.64
2023-07-03T09:29:50.024Z,24.67
2023-07-03T09:30:50.187Z,24.71
2023-07-03T09:32:50.232Z,24.62
2023-07-03T09:33:49.873Z,24.55
2023-07-03T09:34:49.845Z,24.49
2023-07-03T09:35:50.072Z,24.49
2023-07-03T09:36:49.901Z,24.57
2023-07-03T09:37:50.021Z,24.58
2023-07-03T09:38:50.021Z,24.60
2023-07-03T09:39:50.071Z,24.70
2023-07-03T09:40:50.146Z,24.71
2023-07-03T09:41:50.125Z,24.76
2023-07-03T09:42:50.526Z,24.80
2023-07-03T09:43:50.156Z,24.89
2023-07-03T09:44:50.221Z,24.96
2023-07-03T09:45:50.356Z,25.01
2023-07-03T09:46:50.318Z,25.06
2023-07-03T09:47:50.655Z,25.00
2023-07-03T09:48:50.392Z,25.03
2023-07-03T09:49:50.551Z,25.06
2023-07-03T09:51:05.698Z,25.07
2023-07-03T09:51:51.492Z,25.04
2023-07-03T09:53:03.549Z,25.06
2023-07-03T09:53:51.395Z,25.02
2023-07-03T09:54:50.390Z,25.10
2023-07-03T09:55:50.521Z,25.04
2023-07-03T09:56:50.389Z,25.10
2023-07-03T09:57:50.487Z,25.02
2023-07-03T09:58:50.345Z,25.03
2023-07-03T09:59:50.364Z,24.96
2023-07-03T10:00:50.557Z,25.07
2023-07-03T10:03:50.539Z,25.30
2023-07-03T10:06:50.340Z,25.40
2023-07-03T10:07:51.192Z,25.40
2023-07-03T10:08:50.447Z,25.45
2023-07-03T10:11:50.385Z,25.45
2023-07-03T10:12:50.517Z,25.44
2023-07-03T10:13:50.250Z,25.44
2023-07-03T10:14:50.263Z,25.46
2023-07-03T10:15:50.367Z,25.47
2023-07-03T10:16:50.357Z,25.50
2023-07-03T10:17:50.374Z,25.56
2023-07-03T10:18:50.252Z,25.61
2023-07-03T10:19:50.203Z,25.67
2023-07-03T10:20:50.288Z,25.76
2023-07-03T10:21:50.343Z,25.81
2023-07-03T10:22:50.224Z,25.79
2023-07-03T10:23:50.221Z,25.83
2023-07-03T10:24:50.228Z,25.90
2023-07-03T10:25:50.519Z,25.97
2023-07-03T10:26:50.185Z,25.98
2023-07-03T10:27:50.145Z,25.90
2023-07-03T10:28:50.500Z,25.93
2023-07-03T10:29:51.141Z,25.93
2023-07-03T10:30:50.161Z,25.96
2023-07-03T10:31:50.220Z,25.95
2023-07-03T10:32:50.150Z,25.96
2023-07-03T10:33:50.486Z,25.99
2023-07-03T10:34:50.137Z,26.06
2023-07-03T10:35:50.612Z,26.07
2023-07-03T10:36:50.122Z,26.13
2023-07-03T10:37:50.167Z,26.21
2023-07-03T10:38:50.536Z,26.28
2023-07-03T10:39:50.127Z,26.30
2023-07-03T10:40:50.396Z,26.32
2023-07-03T10:41:50.128Z,26.38
2023-07-03T10:42:50.084Z,26.39
2023-07-03T10:43:50.062Z,26.44
2023-07-03T10:44:50.058Z,26.43
2023-07-03T10:45:50.508Z,26.40
2023-07-03T10:46:50.095Z,26.22
2023-07-03T10:47:50.051Z,26.21
2023-07-03T10:48:50.025Z,26.25
2023-07-03T10:49:49.981Z,26.26
2023-07-03T10:50:50.239Z,26.15
2023-07-03T10:51:50.021Z,26.16
2023-07-03T10:52:50.059Z,26.16
2023-07-03T10:53:50.057Z,26.14
2023-07-03T10:54:50.065Z,26.22
2023-07-03T10:55:50.273Z,26.21
2023-07-03T10:56:49.991Z,26.22
2023-07-03T10:57:49.942Z,26.27
2023-07-03T10:58:50.540Z,26.23
2023-07-03T10:59:49.959Z,26.23
2023-07-03T11:00:49.955Z,26.26
2023-07-03T11:01:50.129Z,26.29
2023-07-03T11:02:50.006Z,26.31
2023-07-03T11:04:01.066Z,26.26
2023-07-03T11:04:51.068Z,26.27
2023-07-03T11:05:50.305Z,26.16
2023-07-03T11:06:50.003Z,26.07
2023-07-03T11:07:50.007Z,26.10
2023-07-03T11:08:49.964Z,26.22
2023-07-03T11:09:50.027Z,26.24
2023-07-03T11:10:49.982Z,26.29
2023-07-03T11:11:49.971Z,26.28
2023-07-03T11:12:49.953Z,26.39
2023-07-03T11:13:50.008Z,26.49
2023-07-03T11:14:49.944Z,26.49
2023-07-03T11:15:50.184Z,26.40
2023-07-03T11:16:50.040Z,26.28
2023-07-03T11:19:49.993Z,26.47
2023-07-03T11:22:49.910Z,26.73
2023-07-03T11:23:50.006Z,26.76
2023-07-03T11:24:49.925Z,26.80
2023-07-03T11:28:49.907Z,26.95
2023-07-03T11:29:49.894Z,27.02
2023-07-03T11:30:50.263Z,27.01
2023-07-03T11:31:50.908Z,26.97
2023-07-03T11:32:49.853Z,27.06
2023-07-03T11:36:51.865Z,27.33
2023-07-03T11:39:49.860Z,27.41
2023-07-03T11:40:50.055Z,27.36
2023-07-03T11:43:49.783Z,27.39
2023-07-03T11:44:49.847Z,27.42
2023-07-03T11:45:50.091Z,27.46
2023-07-03T11:46:49.797Z,27.42
2023-07-03T11:47:49.767Z,27.27
2023-07-03T11:48:49.814Z,27.26
2023-07-03T11:49:49.748Z,27.28
2023-07-03T11:50:49.746Z,27.17
2023-07-03T11:51:49.733Z,26.96
2023-07-03T11:52:49.708Z,26.95
2023-07-03T11:53:49.769Z,27.07
2023-07-03T11:54:49.717Z,27.12
2023-07-03T11:55:50.017Z,27.23
2023-07-03T11:56:49.680Z,27.35
2023-07-03T11:57:53.040Z,27.48
2023-07-03T11:58:50.728Z,27.52
2023-07-03T11:59:49.650Z,27.59
2023-07-03T12:00:49.696Z,27.41
2023-07-03T12:01:49.668Z,27.37
2023-07-03T12:02:49.720Z,27.48
2023-07-03T12:03:49.708Z,27.57
2023-07-03T12:04:50.345Z,27.57
2023-07-03T12:05:49.914Z,27.65
2023-07-03T12:06:49.616Z,27.73
2023-07-03T12:07:49.636Z,27.79
2023-07-03T12:08:49.633Z,27.88
2023-07-03T12:09:49.618Z,27.92
2023-07-03T12:10:49.588Z,27.78
2023-07-03T12:11:49.662Z,27.86
2023-07-03T12:12:49.641Z,27.90
2023-07-03T12:13:49.854Z,27.95
2023-07-03T12:14:49.768Z,28.01
2023-07-03T12:15:49.952Z,28.07
2023-07-03T12:16:49.854Z,27.99
2023-07-03T12:17:49.884Z,28.06
2023-07-03T12:18:49.925Z,28.15
2023-07-03T12:19:49.901Z,28.17
2023-07-03T12:20:49.909Z,28.21
2023-07-03T12:21:49.906Z,28.32
2023-07-03T12:22:49.920Z,28.37
2023-07-03T12:23:49.915Z,28.26
2023-07-03T12:24:49.933Z,28.27
2023-07-03T12:25:50.287Z,28.38
2023-07-03T12:26:50.058Z,28.44
2023-07-03T12:27:50.109Z,28.36
2023-07-03T12:28:50.099Z,28.36
2023-07-03T12:29:50.164Z,28.42
2023-07-03T12:30:50.191Z,28.28
2023-07-03T12:31:50.177Z,28.32
2023-07-03T12:32:50.233Z,28.40
2023-07-03T12:33:50.294Z,28.44
2023-07-03T12:34:50.331Z,28.51
2023-07-03T12:35:50.541Z,28.56
2023-07-03T12:36:54.222Z,28.52
2023-07-03T12:37:51.453Z,28.55
2023-07-03T12:38:50.430Z,28.33
2023-07-03T12:39:50.369Z,28.41
2023-07-03T12:40:50.450Z,28.50
2023-07-03T12:41:50.351Z,28.61
2023-07-03T12:42:50.409Z,28.65
2023-07-03T12:44:03.465Z,28.71
2023-07-03T12:44:51.386Z,28.81
2023-07-03T12:45:50.608Z,28.90
2023-07-03T12:46:50.340Z,28.95
2023-07-03T12:47:50.377Z,28.90
2023-07-03T12:48:50.335Z,28.92
2023-07-03T12:49:50.371Z,28.99
2023-07-03T12:50:50.763Z,28.90
2023-07-03T12:51:50.314Z,28.93
2023-07-03T12:52:50.310Z,28.96
2023-07-03T12:53:50.333Z,28.94
2023-07-03T12:54:53.465Z,29.03
2023-07-03T12:55:51.436Z,29.06
2023-07-03T12:56:50.284Z,29.12
2023-07-03T12:57:50.261Z,29.09
2023-07-03T12:58:50.266Z,29.13
2023-07-03T12:59:50.268Z,29.17
2023-07-03T13:00:50.315Z,29.19
2023-07-03T13:01:50.223Z,29.23
2023-07-03T13:02:50.241Z,29.25
2023-07-03T13:03:50.228Z,29.20
2023-07-03T13:04:50.290Z,29.01
2023-07-03T13:05:50.656Z,29.08
2023-07-03T13:06:50.217Z,29.11
2023-07-03T13:07:50.197Z,29.13
2023-07-03T13:08:50.233Z,29.22
2023-07-03T13:09:50.367Z,29.18
2023-07-03T13:10:50.234Z,29.00
2023-07-03T13:11:50.241Z,28.91
2023-07-03T13:12:50.296Z,28.87
2023-07-03T13:13:50.380Z,28.96
2023-07-03T13:14:50.411Z,28.87
2023-07-03T13:15:50.694Z,29.01
2023-07-03T13:16:50.533Z,29.15
2023-07-03T13:17:50.561Z,29.19
2023-07-03T13:18:50.606Z,29.12
2023-07-03T13:19:50.601Z,29.16